Manitowoc — WDE3569 — position and weather

sailwx.info

Track history (hours):
 
Tides and Currents Weather Stations Pressure Air Temp Water Temp Dewpoint Dewpoint Depression Visibility Wind Speed Wind Dir Waves Ship Positions

Manitowoc

Owner: Grand River Navigation Company, Traverse City, MI. More information available from US FCC via Universal Licensing System and Coast Guard Vessel Documentation Center.

Last reported at 2018-May-20 10:00 UTC. Time now 2018-May-20 10:23 UTC.
Position N 45°29' W 083°43'.

Length 206 m; draft 7 m.

Type: Cargo ship. MMSI: 367341010.

Date/timePositionNaut miles runAvg speedWind from/ knotsBaromVisibWave heightAir tempDewpointWater temp
2018-May-20 10:00N 45°29' W 083°43'4312.4
2018-May-20 06:34N 45°47' W 084°39'112.9
2018-May-20 06:30N 45°47' W 084°40'612.8
2018-May-20 06:00N 45°49' W 084°48'612.6
2018-May-20 05:30N 45°50' W 084°57'4 8.4
2018-May-20 05:00N 45°54' W 085°00'52772.1 330 / 151017.610.8 6.6
2018-May-20 04:59N 45°51' W 085°06'612.5
2018-May-20 04:29N 45°52' W 085°15'612.5
2018-May-20 03:59N 45°53' W 085°24'612.7
2018-May-20 03:30N 45°53' W 085°33'612.5
2018-May-20 03:00N 45°55' W 085°42'811.6
2018-May-20 02:20N 45°57' W 085°53'1 3.2
2018-May-20 01:53N 45°58' W 085°52'0 0.0
2018-May-20 01:17N 45°58' W 085°52'0 0.0
2018-May-20 00:59N 45°58' W 085°52'0 0.0
2018-May-20 00:29N 45°58' W 085°52'0 0.0
2018-May-19 18:05N 45°58' W 085°52'0 0.0
2018-May-19 17:41N 45°58' W 085°52'0 0.0
2018-May-19 17:29N 45°58' W 085°52'1 1.0
2018-May-19 16:55N 45°58' W 085°53'4 5.9
2018-May-19 16:15N 45°55' W 085°48'313.0
2018-May-19 15:59N 45°55' W 085°43'612.8
2018-May-19 15:29N 45°53' W 085°34'611.6
2018-May-19 15:00N 45°53' W 085°26'612.8
2018-May-19 14:30N 45°52' W 085°17'612.9
2018-May-19 14:00N 45°51' W 085°08'612.7
2018-May-19 13:30N 45°50' W 084°59'612.7
2018-May-19 13:00N 45°49' W 084°50'3200.3
2018-May-19 13:00N 45°48' W 084°54'918.3 090 / 151014.2 1.1 6.1 0.1
2018-May-19 12:30N 45°48' W 084°41'612.7
2018-May-19 12:00N 45°45' W 084°34'611.9
2018-May-19 11:30N 45°41' W 084°27'2 3.5
2018-May-19 11:00N 45°40' W 084°28'1 1.3
2018-May-19 10:30N 45°39' W 084°28'0 0.0
2018-May-19 10:00N 45°39' W 084°28'0 0.0
2018-May-19 09:30N 45°39' W 084°28'0 0.0
2018-May-19 09:00N 45°39' W 084°28'0 0.0
2018-May-19 08:27N 45°39' W 084°28'0 0.0
2018-May-19 07:59N 45°39' W 084°28'0 0.0
2018-May-19 07:30N 45°39' W 084°28'0 0.0
2018-May-19 07:00N 45°39' W 084°28'1 1.3
2018-May-19 06:30N 45°40' W 084°28'2 4.2
2018-May-19 05:59N 45°42' W 084°27'611.9
2018-May-19 05:30N 45°44' W 084°35'2 0.6
2018-May-19 02:00N 45°42' W 084°36'6030.0 120 / 171020.6 6.6
2018-May-19 00:00N 44°42' W 084°36'6060.0 100 / 261020.910.8 7.2 7.7
2018-May-18 23:00N 45°42' W 084°36'2 0.9 110 / 301020.9 5.4 7.2
2018-May-18 20:42N 45°44' W 084°36'0 0.0
2018-May-18 20:29N 45°44' W 084°36'0 0.1
2018-May-18 19:58N 45°44' W 084°36'2 4.3
2018-May-18 19:28N 45°46' W 084°37'511.5
2018-May-18 19:00N 45°49' W 084°43'611.7
2018-May-18 18:30N 45°50' W 084°52'611.8
2018-May-18 18:00N 45°50' W 085°00'611.9
2018-May-18 17:30N 45°51' W 085°08'611.8
2018-May-18 16:59N 45°52' W 085°17'611.7
2018-May-18 16:30N 45°53' W 085°25'611.6
2018-May-18 16:00N 45°53' W 085°33'611.3
2018-May-18 15:30N 45°54' W 085°42'611.5
2018-May-18 15:00N 45°55' W 085°50'3 6.5
2018-May-18 14:30N 45°58' W 085°52'0 0.0
2018-May-18 14:00N 45°58' W 085°52'0 0.0
2018-May-18 13:29N 45°58' W 085°52'0 0.0
2018-May-18 13:00N 45°58' W 085°52'0 0.0
2018-May-18 12:30N 45°58' W 085°52'0 0.0
2018-May-18 12:00N 45°58' W 085°52'0 0.0
2018-May-18 11:29N 45°58' W 085°52'0 0.0
2018-May-18 11:00N 45°58' W 085°52'0 0.0
2018-May-18 10:30N 45°58' W 085°52'0 0.0
2018-May-18 10:00N 45°58' W 085°52'0 0.0
2018-May-18 09:30N 45°58' W 085°52'0 0.0
2018-May-18 09:00N 45°58' W 085°52'0 0.0
2018-May-18 08:30N 45°58' W 085°52'0 0.0
2018-May-18 08:00N 45°58' W 085°52'0 0.0
2018-May-18 07:30N 45°58' W 085°52'0 0.0
2018-May-18 07:00N 45°58' W 085°52'0 0.1
2018-May-18 06:30N 45°58' W 085°52'1 2.4
2018-May-18 05:58N 45°57' W 085°52'3 6.3
2018-May-18 05:30N 45°54' W 085°50'713.1
2018-May-18 05:00N 45°54' W 085°41'713.2
2018-May-18 04:30N 45°53' W 085°31'713.1
2018-May-18 04:00N 45°53' W 085°22'613.1
2018-May-18 03:30N 45°52' W 085°13'713.1
2018-May-18 03:00N 45°51' W 085°03'713.2
2018-May-18 02:30N 45°50' W 084°54'713.4
2018-May-18 02:00N 45°49' W 084°45'612.8
2018-May-18 01:30N 45°51' W 084°36'713.0
2018-May-18 01:00N 45°50' W 084°26'613.0
2018-May-18 00:30N 45°50' W 084°17'2112.8
2018-May-17 22:52N 45°42' W 083°49'510.7
2018-May-17 22:22N 45°40' W 083°42'3 0.1
2018-May-16 22:06N 45°41' W 083°37'112.8
2018-May-16 22:00N 45°39' W 083°36'712.9
2018-May-16 21:28N 45°34' W 083°31'613.0
2018-May-16 21:00N 45°29' W 083°26'712.9
2018-May-16 20:29N 45°23' W 083°21'3313.1
2018-May-16 18:00N 44°54' W 083°00'8912.7 180 / 181015.510.8 7.2
2018-May-16 11:00N 43°30' W 082°18'   060 / 91017.6 5.4 6.6
2018-May-13 23:00N 43°48' W 082°30'2412.2 100 / 151014.8 5.4 4.9
2018-May-13 21:00N 44°12' W 082°36'3712.3 080 / 51015.5 5.4 6.1
2018-May-13 18:00N 44°48' W 082°48'4511.4 120 / 81017.610.8 6.1
2018-May-13 14:01N 45°24' W 083°27'512.2
2018-May-13 13:35N 45°24' W 083°35'112.1
2018-May-13 13:30N 45°25' W 083°36'611.9
2018-May-13 13:00N 45°25' W 083°45'2 3.7
2018-May-13 12:30N 45°25' W 083°47'0 0.0
2018-May-13 12:00N 45°25' W 083°47'0 0.0
2018-May-13 11:30N 45°25' W 083°47'0 0.0
2018-May-13 10:57N 45°25' W 083°47'0 0.0
2018-May-13 10:30N 45°25' W 083°47'0 0.0
2018-May-13 10:00N 45°25' W 083°47'0 0.0
2018-May-13 09:30N 45°25' W 083°47'0 0.0
2018-May-13 08:58N 45°25' W 083°47'0 0.0
2018-May-13 08:30N 45°25' W 083°47'0 0.0
2018-May-13 08:00N 45°25' W 083°47'0 0.0
2018-May-13 07:30N 45°25' W 083°47'0 0.0
2018-May-13 07:00N 45°25' W 083°47'0 0.0
2018-May-13 06:30N 45°25' W 083°47'0 0.0
2018-May-13 06:00N 45°25' W 083°47'0 0.0
2018-May-13 05:30N 45°25' W 083°47'0 0.0
2018-May-13 05:00N 45°25' W 083°47'0 0.0
2018-May-13 04:30N 45°25' W 083°47'0 0.0
2018-May-13 04:00N 45°25' W 083°47'0 0.0
2018-May-13 03:30N 45°25' W 083°47'0 0.0
2018-May-13 03:00N 45°25' W 083°47'0 0.0
2018-May-13 02:30N 45°25' W 083°47'0 0.0
2018-May-13 02:00N 45°25' W 083°47'0 0.0
2018-May-13 01:30N 45°25' W 083°47'0 0.0
2018-May-13 01:00N 45°25' W 083°47'0 0.0
2018-May-13 00:30N 45°25' W 083°47'0 0.0
2018-May-13 00:00N 45°25' W 083°47'0 0.3
2018-May-12 23:30N 45°25' W 083°47'1 1.6
2018-May-12 23:00N 45°25' W 083°46'2 4.6
2018-May-12 22:30N 45°27' W 083°48'612.7
2018-May-12 22:00N 45°32' W 083°54'3412.5
2018-May-12 19:16N 45°47' W 084°38'313.1
2018-May-12 19:00N 45°49' W 084°42'713.2
2018-May-12 18:26N 45°49' W 084°53'613.0
2018-May-12 18:00N 45°50' W 085°01'2114.4
2018-May-12 18:00N 45°48' W 085°00'612.3 140 / 141021.310.8 9.9
2018-May-12 17:30N 45°48' W 085°09'611.7
2018-May-12 16:59N 45°42' W 085°13'612.8
2018-May-12 16:30N 45°37' W 085°18'612.8
2018-May-12 16:00N 45°32' W 085°24'612.8
2018-May-12 15:30N 45°27' W 085°29'612.8
2018-May-12 15:00N 45°22' W 085°34'612.9
2018-May-12 14:30N 45°17' W 085°40'712.8
2018-May-12 14:00N 45°11' W 085°45'1512.6
2018-May-12 12:48N 44°60' W 085°59'412.8
2018-May-12 12:28N 44°58' W 086°04'4412.6
2018-May-12 09:00N 44°18' W 086°30'3612.1 060 / 131017.9 5.4 4.9
2018-May-12 06:00N 43°42' W 086°36'2412.2 070 / 171017.910.8 4.9
2018-May-12 04:00N 43°18' W 086°30'12 0.9 090 / 161017.9 4.9
2018-May-11 14:00N 43°30' W 086°30'4812.0 120 / 71020.927.0 4.9
2018-May-11 10:00N 44°18' W 086°30'5012.4 070 / 171021.3 5.4 3.3
2018-May-11 06:00N 45°06' W 086°12'1212.0 050 / 131022.010.8 2.7
2018-May-11 05:00N 45°18' W 086°12'326.7 030 / 101021.310.8 2.7
2018-May-11 04:52N 45°20' W 086°09'512.6
2018-May-11 04:30N 45°25' W 086°07'612.5
2018-May-11 04:00N 45°31' W 086°05'1112.2
2018-May-11 04:00N 45°30' W 086°06'715.0 020 / 91021.3 2.7
2018-May-11 03:30N 45°37' W 086°03'612.5
2018-May-11 03:00N 45°43' W 085°60'7661.5
2018-May-11 03:00N 45°36' W 086°00'1326.3 010 / 171019.227.0 2.7
2018-May-11 02:30N 45°48' W 085°56'612.3
2018-May-11 02:00N 45°54' W 085°53'4 0.5
2018-May-10 17:48N 45°58' W 085°52'1 2.0
2018-May-10 17:24N 45°57' W 085°53'0 0.1
2018-May-10 15:08N 45°57' W 085°53'0 3.1
2018-May-10 14:59N 45°58' W 085°53'  
Track history (hours):
 
Tides and Currents Weather Stations Pressure Air Temp Water Temp Dewpoint Dewpoint Depression Visibility Wind Speed Wind Dir Waves Ship Positions

Manitowoc

Owner: Grand River Navigation Company, Traverse City, MI. More information available from US FCC via Universal Licensing System and Coast Guard Vessel Documentation Center.

Last reported at 2018-May-20 10:00 UTC. Time now 2018-May-20 10:23 UTC.
Position N 45°29' W 083°43'.

Length 206 m; draft 7 m.

Type: Cargo ship. MMSI: 367341010.

Date/timePositionNaut miles runAvg speedWind from/ knotsBaromVisibWave heightAir tempDewpointWater temp
2018-May-20 10:00N 45°29' W 083°43'4312.4
2018-May-20 06:34N 45°47' W 084°39'112.9
2018-May-20 06:30N 45°47' W 084°40'612.8
2018-May-20 06:00N 45°49' W 084°48'612.6
2018-May-20 05:30N 45°50' W 084°57'4 8.4
2018-May-20 05:00N 45°54' W 085°00'52772.1 330 / 151017.610.8 6.6
2018-May-20 04:59N 45°51' W 085°06'612.5
2018-May-20 04:29N 45°52' W 085°15'612.5
2018-May-20 03:59N 45°53' W 085°24'612.7
2018-May-20 03:30N 45°53' W 085°33'612.5
2018-May-20 03:00N 45°55' W 085°42'811.6
2018-May-20 02:20N 45°57' W 085°53'1 3.2
2018-May-20 01:53N 45°58' W 085°52'0 0.0
2018-May-20 01:17N 45°58' W 085°52'0 0.0
2018-May-20 00:59N 45°58' W 085°52'0 0.0
2018-May-20 00:29N 45°58' W 085°52'0 0.0
2018-May-19 18:05N 45°58' W 085°52'0 0.0
2018-May-19 17:41N 45°58' W 085°52'0 0.0
2018-May-19 17:29N 45°58' W 085°52'1 1.0
2018-May-19 16:55N 45°58' W 085°53'4 5.9
2018-May-19 16:15N 45°55' W 085°48'313.0
2018-May-19 15:59N 45°55' W 085°43'612.8
2018-May-19 15:29N 45°53' W 085°34'611.6
2018-May-19 15:00N 45°53' W 085°26'612.8
2018-May-19 14:30N 45°52' W 085°17'612.9
2018-May-19 14:00N 45°51' W 085°08'612.7
2018-May-19 13:30N 45°50' W 084°59'612.7
2018-May-19 13:00N 45°49' W 084°50'3200.3
2018-May-19 13:00N 45°48' W 084°54'918.3 090 / 151014.2 1.1 6.1 0.1
2018-May-19 12:30N 45°48' W 084°41'612.7
2018-May-19 12:00N 45°45' W 084°34'611.9
2018-May-19 11:30N 45°41' W 084°27'2 3.5
2018-May-19 11:00N 45°40' W 084°28'1 1.3
2018-May-19 10:30N 45°39' W 084°28'0 0.0
2018-May-19 10:00N 45°39' W 084°28'0 0.0
2018-May-19 09:30N 45°39' W 084°28'0 0.0
2018-May-19 09:00N 45°39' W 084°28'0 0.0
2018-May-19 08:27N 45°39' W 084°28'0 0.0
2018-May-19 07:59N 45°39' W 084°28'0 0.0
2018-May-19 07:30N 45°39' W 084°28'0 0.0
2018-May-19 07:00N 45°39' W 084°28'1 1.3
2018-May-19 06:30N 45°40' W 084°28'2 4.2
2018-May-19 05:59N 45°42' W 084°27'611.9
2018-May-19 05:30N 45°44' W 084°35'2 0.6
2018-May-19 02:00N 45°42' W 084°36'6030.0 120 / 171020.6 6.6
2018-May-19 00:00N 44°42' W 084°36'6060.0 100 / 261020.910.8 7.2 7.7
2018-May-18 23:00N 45°42' W 084°36'2 0.9 110 / 301020.9 5.4 7.2
2018-May-18 20:42N 45°44' W 084°36'0 0.0
2018-May-18 20:29N 45°44' W 084°36'0 0.1
2018-May-18 19:58N 45°44' W 084°36'2 4.3
2018-May-18 19:28N 45°46' W 084°37'511.5
2018-May-18 19:00N 45°49' W 084°43'611.7
2018-May-18 18:30N 45°50' W 084°52'611.8
2018-May-18 18:00N 45°50' W 085°00'611.9
2018-May-18 17:30N 45°51' W 085°08'611.8
2018-May-18 16:59N 45°52' W 085°17'611.7
2018-May-18 16:30N 45°53' W 085°25'611.6
2018-May-18 16:00N 45°53' W 085°33'611.3
2018-May-18 15:30N 45°54' W 085°42'611.5
2018-May-18 15:00N 45°55' W 085°50'3 6.5
2018-May-18 14:30N 45°58' W 085°52'0 0.0
2018-May-18 14:00N 45°58' W 085°52'0 0.0
2018-May-18 13:29N 45°58' W 085°52'0 0.0
2018-May-18 13:00N 45°58' W 085°52'0 0.0
2018-May-18 12:30N 45°58' W 085°52'0 0.0
2018-May-18 12:00N 45°58' W 085°52'0 0.0
2018-May-18 11:29N 45°58' W 085°52'0 0.0
2018-May-18 11:00N 45°58' W 085°52'0 0.0
2018-May-18 10:30N 45°58' W 085°52'0 0.0
2018-May-18 10:00N 45°58' W 085°52'0 0.0
2018-May-18 09:30N 45°58' W 085°52'0 0.0
2018-May-18 09:00N 45°58' W 085°52'0 0.0
2018-May-18 08:30N 45°58' W 085°52'0 0.0
2018-May-18 08:00N 45°58' W 085°52'0 0.0
2018-May-18 07:30N 45°58' W 085°52'0 0.0
2018-May-18 07:00N 45°58' W 085°52'0 0.1
2018-May-18 06:30N 45°58' W 085°52'1 2.4
2018-May-18 05:58N 45°57' W 085°52'3 6.3
2018-May-18 05:30N 45°54' W 085°50'713.1
2018-May-18 05:00N 45°54' W 085°41'713.2
2018-May-18 04:30N 45°53' W 085°31'713.1
2018-May-18 04:00N 45°53' W 085°22'613.1
2018-May-18 03:30N 45°52' W 085°13'713.1
2018-May-18 03:00N 45°51' W 085°03'713.2
2018-May-18 02:30N 45°50' W 084°54'713.4
2018-May-18 02:00N 45°49' W 084°45'612.8
2018-May-18 01:30N 45°51' W 084°36'713.0
2018-May-18 01:00N 45°50' W 084°26'613.0
2018-May-18 00:30N 45°50' W 084°17'2112.8
2018-May-17 22:52N 45°42' W 083°49'510.7
2018-May-17 22:22N 45°40' W 083°42'3 0.1
2018-May-16 22:06N 45°41' W 083°37'112.8
2018-May-16 22:00N 45°39' W 083°36'712.9
2018-May-16 21:28N 45°34' W 083°31'613.0
2018-May-16 21:00N 45°29' W 083°26'712.9
2018-May-16 20:29N 45°23' W 083°21'3313.1
2018-May-16 18:00N 44°54' W 083°00'8912.7 180 / 181015.510.8 7.2
2018-May-16 11:00N 43°30' W 082°18'   060 / 91017.6 5.4 6.6
2018-May-13 23:00N 43°48' W 082°30'2412.2 100 / 151014.8 5.4 4.9
2018-May-13 21:00N 44°12' W 082°36'3712.3 080 / 51015.5 5.4 6.1
2018-May-13 18:00N 44°48' W 082°48'4511.4 120 / 81017.610.8 6.1
2018-May-13 14:01N 45°24' W 083°27'512.2
2018-May-13 13:35N 45°24' W 083°35'112.1
2018-May-13 13:30N 45°25' W 083°36'611.9
2018-May-13 13:00N 45°25' W 083°45'2 3.7
2018-May-13 12:30N 45°25' W 083°47'0 0.0
2018-May-13 12:00N 45°25' W 083°47'0 0.0
2018-May-13 11:30N 45°25' W 083°47'0 0.0
2018-May-13 10:57N 45°25' W 083°47'0 0.0
2018-May-13 10:30N 45°25' W 083°47'0 0.0
2018-May-13 10:00N 45°25' W 083°47'0 0.0
2018-May-13 09:30N 45°25' W 083°47'0 0.0
2018-May-13 08:58N 45°25' W 083°47'0 0.0
2018-May-13 08:30N 45°25' W 083°47'0 0.0
2018-May-13 08:00N 45°25' W 083°47'0 0.0
2018-May-13 07:30N 45°25' W 083°47'0 0.0
2018-May-13 07:00N 45°25' W 083°47'0 0.0
2018-May-13 06:30N 45°25' W 083°47'0 0.0
2018-May-13 06:00N 45°25' W 083°47'0 0.0
2018-May-13 05:30N 45°25' W 083°47'0 0.0
2018-May-13 05:00N 45°25' W 083°47'0 0.0
2018-May-13 04:30N 45°25' W 083°47'0 0.0
2018-May-13 04:00N 45°25' W 083°47'0 0.0
2018-May-13 03:30N 45°25' W 083°47'0 0.0
2018-May-13 03:00N 45°25' W 083°47'0 0.0
2018-May-13 02:30N 45°25' W 083°47'0 0.0
2018-May-13 02:00N 45°25' W 083°47'0 0.0
2018-May-13 01:30N 45°25' W 083°47'0 0.0
2018-May-13 01:00N 45°25' W 083°47'0 0.0
2018-May-13 00:30N 45°25' W 083°47'0 0.0
2018-May-13 00:00N 45°25' W 083°47'0 0.3
2018-May-12 23:30N 45°25' W 083°47'1 1.6
2018-May-12 23:00N 45°25' W 083°46'2 4.6
2018-May-12 22:30N 45°27' W 083°48'612.7
2018-May-12 22:00N 45°32' W 083°54'3412.5
2018-May-12 19:16N 45°47' W 084°38'313.1
2018-May-12 19:00N 45°49' W 084°42'713.2
2018-May-12 18:26N 45°49' W 084°53'613.0
2018-May-12 18:00N 45°50' W 085°01'2114.4
2018-May-12 18:00N 45°48' W 085°00'612.3 140 / 141021.310.8 9.9
2018-May-12 17:30N 45°48' W 085°09'611.7
2018-May-12 16:59N 45°42' W 085°13'612.8
2018-May-12 16:30N 45°37' W 085°18'612.8
2018-May-12 16:00N 45°32' W 085°24'612.8
2018-May-12 15:30N 45°27' W 085°29'612.8
2018-May-12 15:00N 45°22' W 085°34'612.9
2018-May-12 14:30N 45°17' W 085°40'712.8
2018-May-12 14:00N 45°11' W 085°45'1512.6
2018-May-12 12:48N 44°60' W 085°59'412.8
2018-May-12 12:28N 44°58' W 086°04'4412.6
2018-May-12 09:00N 44°18' W 086°30'3612.1 060 / 131017.9 5.4 4.9
2018-May-12 06:00N 43°42' W 086°36'2412.2 070 / 171017.910.8 4.9
2018-May-12 04:00N 43°18' W 086°30'12 0.9 090 / 161017.9 4.9
2018-May-11 14:00N 43°30' W 086°30'4812.0 120 / 71020.927.0 4.9
2018-May-11 10:00N 44°18' W 086°30'5012.4 070 / 171021.3 5.4 3.3
2018-May-11 06:00N 45°06' W 086°12'1212.0 050 / 131022.010.8 2.7
2018-May-11 05:00N 45°18' W 086°12'326.7 030 / 101021.310.8 2.7
2018-May-11 04:52N 45°20' W 086°09'512.6
2018-May-11 04:30N 45°25' W 086°07'612.5
2018-May-11 04:00N 45°31' W 086°05'1112.2
2018-May-11 04:00N 45°30' W 086°06'715.0 020 / 91021.3 2.7
2018-May-11 03:30N 45°37' W 086°03'612.5
2018-May-11 03:00N 45°43' W 085°60'7661.5
2018-May-11 03:00N 45°36' W 086°00'1326.3 010 / 171019.227.0 2.7
2018-May-11 02:30N 45°48' W 085°56'612.3
2018-May-11 02:00N 45°54' W 085°53'4 0.5
2018-May-10 17:48N 45°58' W 085°52'1 2.0
2018-May-10 17:24N 45°57' W 085°53'0 0.1
2018-May-10 15:08N 45°57' W 085°53'0 3.1
2018-May-10 14:59N 45°58' W 085°53'  

Dump ship's entire track history